KLEX/LEX METAR and TAF weather

Enter ICAO airport designator
Station Type Date Time Source
KLEX METAR 2020/09/23 18:54 UTC NOAA

KLEX 231854Z 32003KT 10SM CLR 21/13 A3009 RMK AO2 SLP185 T02060128


Station Type Date Time Source
KLEX Decoded METAR 2020/09/23 18:54 UTC NOAA

LEXINGTON BLUE GRASS AIRPORT, KY, United States (KLEX) 38-02N 084-36W 300M
Sep 23, 2020 - 02:54 PM EDT / 2020.09.23 1854 UTC
Wind: from the NW (320 degrees) at 3 MPH (3 KT):0
Visibility: 10 mile(s):0
Sky conditions: clear
Temperature: 69.1 F (20.6 C)
Dew Point: 55.0 F (12.8 C)
Relative Humidity: 60%
Pressure (altimeter): 30.09 in. Hg (1018 hPa)
ob: KLEX 231854Z 32003KT 10SM CLR 21/13 A3009 RMK AO2 SLP185 T02060128
cycle: 19

Station Type Date Time Source
KLEX TAF 2020/09/23 18:22 UTC NOAA

TAF KLEX 231720Z 2318/2418 VRB03KT P6SM BKN250
FM241200 VRB03KT P6SM VCSH BKN060 OVC150

Example: see airport list